createdAt,value
2022-11-15T00:02:13.225Z,40.20
2022-11-15T00:05:17.765Z,45.83
2022-11-15T00:08:23.570Z,43.75
2022-11-15T00:11:30.480Z,42.15
2022-11-15T00:14:33.860Z,45.80
2022-11-15T00:17:37.274Z,39.43
2022-11-15T00:20:42.816Z,36.20
2022-11-15T00:23:47.226Z,39.78
2022-11-15T00:26:50.474Z,38.25
2022-11-15T00:29:54.248Z,37.33
2022-11-15T00:32:58.515Z,32.47
2022-11-15T00:42:11.515Z,36.53
2022-11-15T00:45:14.782Z,36.40
2022-11-15T00:48:18.012Z,37.47
2022-11-15T00:51:21.472Z,39.20
2022-11-15T00:54:26.003Z,41.53
2022-11-15T00:57:29.257Z,42.90
2022-11-15T01:00:32.567Z,41.73
2022-11-15T01:03:35.789Z,38.20
2022-11-15T01:06:38.981Z,47.67
2022-11-15T01:09:43.522Z,41.17
2022-11-15T01:12:46.752Z,44.40
2022-11-15T01:15:49.927Z,48.17
2022-11-15T01:18:53.055Z,37.53
2022-11-15T01:21:56.437Z,38.10
2022-11-15T01:25:01.318Z,38.63
2022-11-15T01:28:04.767Z,40.65
2022-11-15T01:31:13.677Z,43.13
2022-11-15T01:34:17.125Z,35.78
2022-11-15T01:37:20.381Z,42.50
2022-11-15T01:40:25.201Z,31.33
2022-11-15T01:43:34.189Z,38.55
2022-11-15T01:46:39.852Z,33.17
2022-11-15T01:49:57.931Z,41.35
2022-11-15T01:53:02.159Z,37.60
2022-11-15T01:59:14.464Z,34.45
2022-11-15T02:02:18.187Z,37.88
2022-11-15T02:05:21.921Z,34.20
2022-11-15T02:08:25.260Z,40.45
2022-11-15T02:11:30.770Z,35.70
2022-11-15T02:14:35.190Z,36.30
2022-11-15T02:18:05.236Z,35.42
2022-11-15T02:21:23.037Z,35.83
2022-11-15T02:25:03.281Z,33.25
2022-11-15T02:28:47.727Z,32.83
2022-11-15T02:32:04.437Z,38.57
2022-11-15T02:35:20.528Z,35.38
2022-11-15T02:38:38.693Z,35.53
2022-11-15T02:41:50.075Z,32.53
2022-11-15T02:44:56.680Z,34.90
2022-11-15T02:48:05.905Z,37.03
2022-11-15T02:51:10.298Z,33.85
2022-11-15T02:54:17.562Z,40.55
2022-11-15T02:57:34.489Z,35.00
2022-11-15T03:00:45.615Z,36.28
2022-11-15T03:04:04.629Z,40.10
2022-11-15T03:07:18.079Z,37.40
2022-11-15T03:10:28.650Z,43.47
2022-11-15T03:13:41.615Z,36.47
2022-11-15T03:16:52.865Z,40.13
2022-11-15T03:20:02.044Z,40.03
2022-11-15T03:23:10.922Z,38.88
2022-11-15T03:26:18.800Z,34.25
2022-11-15T03:29:31.658Z,39.13
2022-11-15T03:32:42.225Z,44.15
2022-11-15T03:35:49.909Z,38.03
2022-11-15T03:38:58.956Z,39.08
2022-11-15T03:42:17.317Z,37.85
2022-11-15T03:45:28.196Z,39.63
2022-11-15T03:48:39.227Z,43.53
2022-11-15T03:51:44.009Z,40.38
2022-11-15T03:54:56.135Z,36.50
2022-11-15T03:58:02.995Z,36.15
2022-11-15T04:01:06.313Z,38.90
2022-11-15T04:04:10.585Z,36.27
2022-11-15T04:10:21.074Z,36.42
2022-11-15T04:13:24.349Z,36.25
2022-11-15T04:16:27.401Z,36.43
2022-11-15T04:19:48.373Z,32.47
2022-11-15T04:23:09.421Z,31.95
2022-11-15T04:26:18.432Z,30.38
2022-11-15T04:29:36.737Z,34.85
2022-11-15T04:32:40.404Z,32.25
2022-11-15T04:36:05.490Z,33.30
2022-11-15T04:39:09.965Z,33.80
2022-11-15T04:42:13.392Z,35.03
2022-11-15T04:45:17.070Z,34.93
2022-11-15T04:48:21.249Z,36.08
2022-11-15T04:54:29.262Z,44.38
2022-11-15T04:57:32.511Z,40.28
2022-11-15T05:00:35.961Z,37.75
2022-11-15T05:03:57.270Z,37.33
2022-11-15T05:07:00.418Z,42.55
2022-11-15T05:10:05.674Z,39.67
2022-11-15T05:13:09.624Z,44.22
2022-11-15T05:16:12.780Z,41.72
2022-11-15T05:19:16.369Z,42.22
2022-11-15T05:22:19.825Z,47.28
2022-11-15T05:25:24.924Z,45.13
2022-11-15T05:28:28.265Z,39.97
2022-11-15T05:31:31.472Z,48.17
2022-11-15T05:34:35.874Z,44.45
2022-11-15T05:37:39.066Z,37.70
2022-11-15T05:40:43.985Z,40.67
2022-11-15T05:43:49.780Z,37.35
2022-11-15T05:47:00.979Z,40.60
2022-11-15T05:50:05.221Z,39.22
2022-11-15T05:53:09.650Z,40.95
2022-11-15T05:56:15.139Z,37.67
2022-11-15T05:59:20.366Z,34.35
2022-11-15T06:02:24.367Z,41.65
2022-11-15T06:05:28.399Z,41.22
2022-11-15T06:08:31.801Z,44.55
2022-11-15T06:11:36.593Z,40.85
2022-11-15T06:14:40.549Z,39.25
2022-11-15T06:17:46.419Z,41.28
2022-11-15T06:20:49.800Z,36.58
2022-11-15T06:23:53.108Z,42.17
2022-11-15T06:26:58.570Z,42.87
2022-11-15T06:30:02.789Z,44.83
2022-11-15T06:36:18.345Z,45.58
2022-11-15T06:39:21.689Z,54.35
2022-11-15T06:42:26.495Z,57.77
2022-11-15T06:45:29.876Z,56.65
2022-11-15T06:48:34.832Z,53.07
2022-11-15T06:51:37.907Z,51.50
2022-11-15T06:54:41.088Z,52.92
2022-11-15T06:57:52.399Z,51.10
2022-11-15T07:00:56.342Z,58.13
2022-11-15T07:03:59.674Z,54.45
2022-11-15T07:07:03.520Z,55.07
2022-11-15T07:10:08.709Z,54.70
2022-11-15T07:13:13.167Z,52.70
2022-11-15T07:16:16.455Z,59.95
2022-11-15T07:19:19.575Z,48.07
2022-11-15T07:22:22.774Z,53.33
2022-11-15T07:25:26.463Z,50.30
2022-11-15T07:28:31.279Z,55.10
2022-11-15T07:31:35.077Z,58.58
2022-11-15T07:34:38.551Z,60.70
2022-11-15T07:37:41.811Z,54.57
2022-11-15T07:40:44.909Z,55.70
2022-11-15T07:43:49.473Z,63.75
2022-11-15T07:46:52.588Z,55.78
2022-11-15T07:49:55.698Z,56.25
2022-11-15T07:53:01.171Z,50.13
2022-11-15T07:56:04.542Z,57.88
2022-11-15T07:59:09.358Z,54.40
2022-11-15T08:02:12.751Z,56.13
2022-11-15T08:05:16.583Z,55.08
2022-11-15T08:08:20.587Z,56.00
2022-11-15T08:11:23.983Z,54.35
2022-11-15T08:14:29.151Z,53.53
2022-11-15T08:17:34.842Z,62.97
2022-11-15T08:20:38.415Z,57.90
2022-11-15T08:23:41.507Z,49.05
2022-11-15T08:26:45.491Z,51.08
2022-11-15T08:29:55.554Z,54.35
2022-11-15T08:33:02.540Z,55.17
2022-11-15T08:36:06.575Z,47.23
2022-11-15T08:39:13.336Z,51.33
2022-11-15T08:42:20.092Z,49.28
2022-11-15T08:45:25.033Z,52.85
2022-11-15T08:48:28.471Z,46.90
2022-11-15T08:51:31.887Z,53.58
2022-11-15T08:54:35.155Z,55.27
2022-11-15T08:57:38.408Z,52.93
2022-11-15T09:00:43.672Z,50.73
2022-11-15T09:03:47.068Z,56.13
2022-11-15T09:06:50.326Z,51.40
2022-11-15T09:09:53.603Z,48.93
2022-11-15T09:12:58.792Z,47.20
2022-11-15T09:16:04.200Z,55.47
2022-11-15T09:19:11.937Z,52.45
2022-11-15T09:22:15.588Z,54.75
2022-11-15T09:25:19.275Z,47.08
2022-11-15T09:28:22.844Z,56.63
2022-11-15T09:31:27.735Z,53.05
2022-11-15T09:34:30.921Z,43.90
2022-11-15T09:37:34.503Z,50.20
2022-11-15T09:40:40.029Z,55.90
2022-11-15T09:43:57.604Z,49.08
2022-11-15T09:47:26.384Z,49.13
2022-11-15T09:50:42.656Z,49.72
2022-11-15T09:54:30.880Z,46.08
2022-11-15T09:57:31.959Z,52.75
2022-11-15T10:00:48.605Z,47.50
2022-11-15T10:03:53.953Z,44.40
2022-11-15T10:07:07.837Z,48.92
2022-11-15T10:10:19.587Z,43.80
2022-11-15T10:13:28.793Z,41.90
2022-11-15T10:17:34.865Z,45.78
2022-11-15T10:21:09.704Z,48.03
2022-11-15T10:24:14.718Z,46.15
2022-11-15T10:27:20.918Z,48.50
2022-11-15T10:30:30.729Z,52.65
2022-11-15T10:33:36.651Z,54.22
2022-11-15T10:36:50.343Z,51.05
2022-11-15T10:40:07.325Z,41.75
2022-11-15T10:43:19.195Z,49.67
2022-11-15T10:46:46.732Z,41.30
2022-11-15T10:50:05.576Z,40.28
2022-11-15T10:53:25.519Z,43.72
2022-11-15T10:56:30.205Z,44.78
2022-11-15T10:59:39.391Z,38.13
2022-11-15T11:02:59.875Z,43.78
2022-11-15T11:06:10.361Z,43.78
2022-11-15T11:09:31.557Z,42.22
2022-11-15T11:12:36.024Z,37.33
2022-11-15T11:15:39.925Z,39.22
2022-11-15T11:18:58.744Z,40.63
2022-11-15T11:22:17.097Z,40.92
2022-11-15T11:25:36.864Z,45.30
2022-11-15T11:28:54.614Z,45.30
2022-11-15T11:32:11.108Z,46.95
2022-11-15T11:35:22.466Z,37.28
2022-11-15T11:39:00.390Z,42.80
2022-11-15T11:42:18.937Z,41.97
2022-11-15T11:45:47.356Z,39.67
2022-11-15T11:48:58.644Z,35.35
2022-11-15T11:52:13.082Z,39.10
2022-11-15T11:58:35.313Z,41.55
2022-11-15T12:01:44.795Z,41.25
2022-11-15T12:04:54.635Z,38.88
2022-11-15T12:08:11.345Z,40.55
2022-11-15T12:11:22.562Z,41.35
2022-11-15T12:14:38.503Z,38.58
2022-11-15T12:17:43.954Z,38.05
2022-11-15T12:21:01.678Z,43.28
2022-11-15T12:24:10.325Z,36.72
2022-11-15T12:27:26.521Z,30.10
2022-11-15T12:30:47.294Z,32.58
2022-11-15T12:33:52.133Z,40.13
2022-11-15T12:36:55.571Z,36.78
2022-11-15T12:40:33.394Z,37.35
2022-11-15T12:43:43.467Z,37.17
2022-11-15T12:47:24.781Z,32.17
2022-11-15T12:50:59.087Z,36.70
2022-11-15T12:54:23.157Z,41.47
2022-11-15T12:57:37.693Z,40.22
2022-11-15T13:04:25.717Z,39.80
2022-11-15T13:07:59.038Z,38.70
2022-11-15T13:11:49.603Z,41.53
2022-11-15T13:14:57.179Z,39.58
2022-11-15T13:18:02.616Z,41.90
2022-11-15T13:21:45.444Z,43.42
2022-11-15T13:24:48.826Z,40.40
2022-11-15T13:27:55.942Z,39.22
2022-11-15T13:31:02.284Z,36.97
2022-11-15T13:34:49.942Z,44.05
2022-11-15T13:37:49.260Z,45.65
2022-11-15T13:40:56.862Z,44.95
2022-11-15T13:44:27.665Z,42.95
2022-11-15T13:47:32.593Z,40.72
2022-11-15T13:50:41.077Z,39.38
2022-11-15T13:53:56.390Z,42.85
2022-11-15T13:57:05.903Z,43.88
2022-11-15T14:00:33.271Z,46.25
2022-11-15T14:03:48.545Z,41.42
2022-11-15T14:06:55.488Z,43.28
2022-11-15T14:09:58.982Z,43.45
2022-11-15T14:13:07.354Z,39.85
2022-11-15T14:16:23.642Z,40.65
2022-11-15T14:19:42.927Z,48.13
2022-11-15T14:22:55.844Z,43.58
2022-11-15T14:26:07.481Z,46.63
2022-11-15T14:29:29.167Z,42.88
2022-11-15T14:32:45.832Z,44.75
2022-11-15T14:35:50.298Z,43.35
2022-11-15T14:42:05.956Z,43.42
2022-11-15T14:45:19.039Z,38.67
2022-11-15T14:48:24.062Z,39.22
2022-11-15T14:51:27.926Z,34.60
2022-11-15T14:54:31.704Z,37.08
2022-11-15T14:57:36.364Z,39.53
2022-11-15T15:00:42.800Z,36.92
2022-11-15T15:03:47.978Z,30.95
2022-11-15T15:06:51.304Z,40.80
2022-11-15T15:10:02.741Z,38.10
2022-11-15T15:13:21.567Z,33.85
2022-11-15T15:16:25.585Z,36.22
2022-11-15T15:19:30.207Z,36.63
2022-11-15T15:22:33.850Z,38.13
2022-11-15T15:25:37.447Z,32.58
2022-11-15T15:28:41.166Z,33.83
2022-11-15T15:31:45.970Z,30.23
2022-11-15T15:34:51.696Z,30.20
2022-11-15T15:37:56.970Z,33.10
2022-11-15T15:41:02.850Z,30.08
2022-11-15T15:44:06.056Z,30.80
2022-11-15T15:47:14.469Z,26.20
2022-11-15T15:50:26.910Z,25.98
2022-11-15T15:53:31.589Z,25.50
2022-11-15T15:56:35.105Z,26.08
2022-11-15T15:59:38.464Z,24.67
2022-11-15T16:02:42.709Z,21.53
2022-11-15T16:09:13.731Z,22.52
2022-11-15T16:12:16.218Z,22.63
2022-11-15T16:15:20.537Z,19.77
2022-11-15T16:21:30.396Z,19.15
2022-11-15T16:24:34.487Z,22.38
2022-11-15T16:27:46.252Z,28.00
2022-11-15T16:30:57.815Z,19.30
2022-11-15T16:34:12.199Z,23.85
2022-11-15T16:41:00.779Z,21.58
2022-11-15T16:44:04.732Z,23.55
2022-11-15T16:47:20.478Z,21.55
2022-11-15T16:50:27.590Z,23.77
2022-11-15T16:53:32.672Z,18.25
2022-11-15T16:56:37.304Z,17.85
2022-11-15T16:59:42.793Z,21.27
2022-11-15T17:02:50.393Z,14.15
2022-11-15T17:05:59.397Z,16.48
2022-11-15T17:09:06.980Z,16.88
2022-11-15T17:12:12.054Z,16.30
2022-11-15T17:15:16.783Z,17.02
2022-11-15T17:18:22.029Z,14.45
2022-11-15T17:21:35.613Z,12.35
2022-11-15T17:27:48.966Z,15.43
2022-11-15T17:30:52.211Z,14.65
2022-11-15T17:33:55.603Z,13.60
2022-11-15T17:36:58.786Z,14.87
2022-11-15T17:40:03.622Z,12.73
2022-11-15T17:43:10.626Z,13.52
2022-11-15T17:46:21.405Z,17.38
2022-11-15T17:49:25.514Z,14.50
2022-11-15T17:52:33.469Z,16.15
2022-11-15T17:55:45.730Z,13.25
2022-11-15T17:58:51.650Z,11.50
2022-11-15T18:05:19.111Z,12.27
2022-11-15T18:08:25.831Z,16.47
2022-11-15T18:11:34.781Z,17.00
2022-11-15T18:14:40.111Z,13.48
2022-11-15T18:17:43.863Z,13.52
2022-11-15T18:20:48.331Z,15.43
2022-11-15T18:23:58.935Z,12.25
2022-11-15T18:27:09.471Z,16.58
2022-11-15T18:30:18.170Z,15.10
2022-11-15T18:33:27.330Z,14.73
2022-11-15T18:36:34.205Z,15.27
2022-11-15T18:39:40.375Z,13.57
2022-11-15T18:42:53.399Z,14.85
2022-11-15T18:45:56.989Z,17.00
2022-11-15T18:49:03.393Z,20.27
2022-11-15T18:52:09.474Z,17.08
2022-11-15T18:55:16.011Z,19.02
2022-11-15T18:58:21.399Z,16.10
2022-11-15T19:01:29.711Z,19.77
2022-11-15T19:04:33.484Z,14.73
2022-11-15T19:07:38.286Z,17.33
2022-11-15T19:10:43.584Z,16.10
2022-11-15T19:13:49.886Z,18.00
2022-11-15T19:16:54.857Z,16.08
2022-11-15T19:19:58.555Z,16.85
2022-11-15T19:23:03.047Z,17.02
2022-11-15T19:26:13.300Z,16.10
2022-11-15T19:29:18.430Z,15.63
2022-11-15T19:32:22.272Z,17.40
2022-11-15T19:38:35.878Z,16.93
2022-11-15T19:41:50.834Z,17.23
2022-11-15T19:44:58.334Z,13.50
2022-11-15T19:48:02.185Z,14.77
2022-11-15T19:51:09.452Z,16.65
2022-11-15T19:54:13.676Z,17.20
2022-11-15T19:57:19.613Z,23.88
2022-11-15T20:00:24.720Z,15.20
2022-11-15T20:03:31.262Z,17.17
2022-11-15T20:06:39.351Z,14.90
2022-11-15T20:09:44.319Z,16.15
2022-11-15T20:12:50.302Z,19.13
2022-11-15T20:15:56.575Z,15.57
2022-11-15T20:19:04.167Z,14.13
2022-11-15T20:22:08.240Z,16.33
2022-11-15T20:25:12.546Z,16.42
2022-11-15T20:28:20.132Z,15.50
2022-11-15T20:31:32.284Z,13.00
2022-11-15T20:34:35.612Z,11.73
2022-11-15T20:37:39.291Z,14.83
2022-11-15T20:40:45.846Z,10.27
2022-11-15T20:43:50.096Z,11.68
2022-11-15T20:46:56.042Z,9.25
2022-11-15T20:50:14.948Z,8.52
2022-11-15T20:53:28.039Z,7.65
2022-11-15T20:56:34.845Z,7.40
2022-11-15T21:02:43.838Z,9.32
2022-11-15T21:05:47.532Z,9.15
2022-11-15T21:09:09.824Z,12.25
2022-11-15T21:12:14.928Z,7.10
2022-11-15T21:15:18.883Z,8.05
2022-11-15T21:18:24.410Z,11.43
2022-11-15T21:21:27.700Z,8.52
2022-11-15T21:24:35.635Z,10.87
2022-11-15T21:27:39.595Z,6.47
2022-11-15T21:30:44.067Z,3.95
2022-11-15T21:33:49.598Z,4.05
2022-11-15T21:36:55.683Z,4.63
2022-11-15T21:39:59.972Z,3.88
2022-11-15T21:46:11.203Z,3.35
2022-11-15T21:49:17.370Z,6.90
2022-11-15T21:52:26.094Z,2.97
2022-11-15T21:55:33.527Z,3.13
2022-11-15T21:58:49.158Z,2.95
2022-11-15T22:02:12.295Z,5.03
2022-11-15T22:05:17.883Z,6.07
2022-11-15T22:08:22.894Z,3.85
2022-11-15T22:11:26.467Z,3.10
2022-11-15T22:14:29.854Z,3.72
2022-11-15T22:17:46.939Z,3.30
2022-11-15T22:21:01.139Z,3.08
2022-11-15T22:24:06.754Z,2.88
2022-11-15T22:27:12.589Z,3.30
2022-11-15T22:30:16.939Z,4.00
2022-11-15T22:33:22.965Z,3.10
2022-11-15T22:36:35.981Z,2.85
2022-11-15T22:39:50.468Z,2.15
2022-11-15T22:42:53.798Z,1.77
2022-11-15T22:45:59.166Z,2.53
2022-11-15T22:49:03.550Z,3.88
2022-11-15T22:52:08.956Z,2.22
2022-11-15T22:55:13.047Z,2.15
2022-11-15T22:58:16.825Z,3.35
2022-11-15T23:01:23.935Z,2.90
2022-11-15T23:04:28.211Z,3.25
2022-11-15T23:07:33.806Z,3.20
2022-11-15T23:10:57.449Z,3.13
2022-11-15T23:14:06.335Z,2.22
2022-11-15T23:17:10.586Z,2.78
2022-11-15T23:23:38.974Z,3.40
2022-11-15T23:26:45.667Z,1.63
2022-11-15T23:30:07.810Z,2.10
2022-11-15T23:33:33.717Z,1.73
2022-11-15T23:36:42.497Z,1.25
2022-11-15T23:39:50.320Z,1.42
2022-11-15T23:42:54.199Z,1.65
2022-11-15T23:46:00.753Z,2.80
2022-11-15T23:49:05.745Z,3.40
2022-11-15T23:52:09.635Z,4.35
2022-11-15T23:55:14.940Z,1.48
2022-11-15T23:58:18.240Z,1.35
